createdAt,value
2023-03-15T08:55:14.441Z,7.10
2023-03-15T08:57:44.877Z,6.50
2023-03-15T09:00:20.442Z,7.00
2023-03-15T09:02:55.296Z,9.10
2023-03-15T09:05:24.803Z,8.00
2023-03-15T09:07:56.149Z,8.10
2023-03-15T09:10:24.695Z,7.10
2023-03-15T09:12:55.762Z,8.90
2023-03-15T09:15:29.245Z,9.50
2023-03-15T09:17:57.842Z,9.40
2023-03-15T09:20:28.403Z,6.80
2023-03-15T09:23:01.102Z,7.80
2023-03-15T09:25:29.944Z,7.60
2023-03-15T09:27:58.270Z,8.60
2023-03-15T09:30:27.191Z,7.80
2023-03-15T09:32:56.048Z,8.00
2023-03-15T09:35:24.351Z,8.50
2023-03-15T09:37:53.623Z,8.00
2023-03-15T09:40:26.289Z,9.30
2023-03-15T09:43:02.772Z,8.20
2023-03-15T09:45:43.540Z,8.20
2023-03-15T09:48:18.054Z,10.30
2023-03-15T09:50:49.606Z,9.40
2023-03-15T09:53:32.413Z,9.80
2023-03-15T09:56:00.641Z,7.60
2023-03-15T09:58:35.463Z,13.50
2023-03-15T10:01:06.366Z,10.60
2023-03-15T10:03:52.077Z,7.80
2023-03-15T10:06:36.620Z,17.20
2023-03-15T10:09:16.003Z,23.60
2023-03-15T10:12:15.171Z,10.50
2023-03-15T10:15:08.720Z,10.20
2023-03-15T10:17:59.027Z,7.40
2023-03-15T10:20:30.081Z,10.10
2023-03-15T10:23:11.788Z,8.70
2023-03-15T10:25:40.015Z,13.10
2023-03-15T10:28:09.993Z,14.60
2023-03-15T10:30:39.652Z,9.90
2023-03-15T10:33:16.011Z,8.00
2023-03-15T10:35:44.671Z,11.60
2023-03-15T10:38:18.370Z,13.90
2023-03-15T10:41:06.468Z,10.50
2023-03-15T10:43:37.503Z,10.10
2023-03-15T10:46:10.126Z,8.70
2023-03-15T10:48:41.915Z,9.70
2023-03-15T10:51:18.242Z,9.90
2023-03-15T10:53:57.332Z,9.00
2023-03-15T10:56:31.316Z,12.30
2023-03-15T10:59:12.355Z,12.30
2023-03-15T11:01:41.838Z,11.50
2023-03-15T11:04:21.626Z,14.10
2023-03-15T11:06:59.215Z,11.00
2023-03-15T11:09:27.682Z,10.40
2023-03-15T11:12:00.237Z,9.00
2023-03-15T11:14:39.314Z,8.00
2023-03-15T11:17:12.170Z,10.50
2023-03-15T11:19:42.432Z,9.60
2023-03-15T11:22:11.478Z,10.40
2023-03-15T11:24:40.802Z,10.00
2023-03-15T11:27:16.858Z,12.30
2023-03-15T11:29:55.985Z,14.00
2023-03-15T11:32:29.408Z,10.20
2023-03-15T11:35:13.670Z,8.80
2023-03-15T11:38:06.267Z,9.80
2023-03-15T11:40:39.169Z,10.20
2023-03-15T11:43:18.608Z,9.80
2023-03-15T11:46:09.772Z,10.90
2023-03-15T11:48:50.641Z,9.60
2023-03-15T11:51:19.258Z,11.60
2023-03-15T11:53:52.643Z,10.20
2023-03-15T11:56:26.291Z,9.20
2023-03-15T11:59:05.076Z,9.00
2023-03-15T12:01:33.981Z,12.20
2023-03-15T12:04:30.594Z,10.20
2023-03-15T12:07:03.537Z,12.10
2023-03-15T12:09:37.390Z,12.80
2023-03-15T12:12:39.751Z,10.80
2023-03-15T12:15:14.187Z,11.10
2023-03-15T12:17:54.101Z,9.50
2023-03-15T12:20:40.866Z,11.00
2023-03-15T12:23:21.281Z,9.20
2023-03-15T12:26:05.528Z,13.60
2023-03-15T12:28:37.697Z,11.50
2023-03-15T12:31:08.453Z,9.80
2023-03-15T12:33:51.448Z,7.90
2023-03-15T12:36:40.298Z,11.20
2023-03-15T12:39:17.704Z,9.90
2023-03-15T12:41:48.974Z,9.50
2023-03-15T12:44:33.288Z,14.30
2023-03-15T12:47:05.678Z,11.20
2023-03-15T12:49:37.713Z,10.70
2023-03-15T12:52:15.929Z,10.20
2023-03-15T12:54:47.248Z,10.70
2023-03-15T12:57:22.325Z,14.80
2023-03-15T12:59:52.110Z,12.70
2023-03-15T13:02:42.089Z,14.90
2023-03-15T13:05:21.448Z,11.70
2023-03-15T13:07:54.104Z,14.10
2023-03-15T13:10:51.895Z,12.50
2023-03-15T13:13:39.004Z,19.30
2023-03-15T13:16:26.507Z,17.20
2023-03-15T13:19:23.180Z,11.80
2023-03-15T13:22:54.980Z,14.00
2023-03-15T13:25:31.107Z,14.00
2023-03-15T13:28:00.431Z,16.40
2023-03-15T13:30:39.058Z,10.80
2023-03-15T13:33:26.875Z,22.70
2023-03-15T13:36:28.249Z,15.40
2023-03-15T13:38:57.775Z,14.80
2023-03-15T13:41:29.965Z,12.30
2023-03-15T13:43:59.470Z,14.50
2023-03-15T13:46:33.895Z,13.90
2023-03-15T13:49:02.820Z,13.30
2023-03-15T13:51:35.380Z,14.80
2023-03-15T13:54:13.770Z,8.50
2023-03-15T13:57:06.468Z,9.70
2023-03-15T13:59:36.177Z,9.80
2023-03-15T14:02:05.363Z,10.30
2023-03-15T14:04:36.428Z,11.90
2023-03-15T14:07:26.388Z,12.10
2023-03-15T14:10:17.181Z,9.70
2023-03-15T14:12:46.407Z,15.10
2023-03-15T14:15:22.627Z,10.70
2023-03-15T14:18:02.739Z,10.40
2023-03-15T14:20:39.677Z,10.10
2023-03-15T14:23:13.538Z,9.30
2023-03-15T14:25:45.242Z,13.80
2023-03-15T14:28:16.261Z,12.20
2023-03-15T14:30:56.080Z,8.50
2023-03-15T14:33:31.950Z,13.40
2023-03-15T14:36:05.437Z,11.30
2023-03-15T14:38:39.138Z,11.40
2023-03-15T14:41:27.324Z,10.20
2023-03-15T14:43:56.878Z,9.10
2023-03-15T14:46:27.884Z,10.20
2023-03-15T14:48:57.183Z,10.10
2023-03-15T14:51:25.976Z,8.60
2023-03-15T14:53:56.409Z,8.50
2023-03-15T14:56:25.499Z,9.50
2023-03-15T14:58:56.867Z,8.00
2023-03-15T15:01:27.185Z,10.20
2023-03-15T15:04:01.818Z,10.80
2023-03-15T15:06:32.084Z,9.30
2023-03-15T15:09:01.663Z,8.80
2023-03-15T15:11:30.295Z,8.70
2023-03-15T15:14:04.545Z,8.10
2023-03-15T15:16:33.253Z,10.10
2023-03-15T15:19:01.621Z,11.50
2023-03-15T15:21:34.163Z,8.50
2023-03-15T15:24:04.838Z,12.60
2023-03-15T15:26:33.880Z,9.00
2023-03-15T15:29:03.202Z,12.90
2023-03-15T15:31:35.354Z,9.50
2023-03-15T15:34:04.579Z,13.00
2023-03-15T15:36:35.491Z,7.40
2023-03-15T15:39:06.613Z,13.40
2023-03-15T15:41:35.735Z,12.70
2023-03-15T15:44:18.372Z,13.10
2023-03-15T15:46:47.719Z,9.50
2023-03-15T15:49:16.820Z,13.20
2023-03-15T15:51:47.037Z,10.80
2023-03-15T15:54:21.017Z,11.60
2023-03-15T15:56:53.590Z,17.50
2023-03-15T15:59:22.011Z,18.20
2023-03-15T16:02:00.017Z,14.80
2023-03-15T16:04:30.331Z,12.40
2023-03-15T16:07:02.553Z,11.20
2023-03-15T16:09:32.736Z,13.80
2023-03-15T16:12:02.871Z,13.10
2023-03-15T16:14:32.477Z,13.50
2023-03-15T16:17:01.401Z,13.30
2023-03-15T16:19:31.073Z,13.60
2023-03-15T16:21:59.457Z,11.90
2023-03-15T16:24:30.288Z,11.60
2023-03-15T16:27:03.064Z,11.90
2023-03-15T16:29:43.284Z,20.00
2023-03-15T16:32:20.863Z,15.50
2023-03-15T16:34:55.144Z,14.00
2023-03-15T16:37:29.181Z,12.70
2023-03-15T16:39:57.495Z,18.10
2023-03-15T16:42:26.258Z,13.40
2023-03-15T16:44:55.131Z,16.30
2023-03-15T16:47:23.719Z,15.00
2023-03-15T16:49:53.533Z,18.50
2023-03-15T16:52:21.822Z,13.60
2023-03-15T16:54:50.199Z,14.70
2023-03-15T16:57:21.999Z,15.10
2023-03-15T16:59:51.121Z,20.20
2023-03-15T17:02:21.605Z,15.50
2023-03-15T17:04:49.768Z,17.40
2023-03-15T17:07:18.077Z,14.70
2023-03-15T17:09:47.252Z,11.20
2023-03-15T17:12:24.029Z,19.50
2023-03-15T17:14:55.357Z,19.30
2023-03-15T17:17:24.836Z,13.40
2023-03-15T17:19:53.395Z,13.90
2023-03-15T17:22:22.268Z,15.00
2023-03-15T17:24:51.168Z,13.90
2023-03-15T17:27:30.724Z,11.50
2023-03-15T17:29:59.037Z,14.50
2023-03-15T17:32:27.362Z,17.20
2023-03-15T17:34:59.166Z,13.40
2023-03-15T17:37:27.410Z,18.60
2023-03-15T17:39:56.861Z,22.90
2023-03-15T17:42:25.201Z,19.20
2023-03-15T17:44:54.399Z,18.40
2023-03-15T17:47:22.675Z,20.60
2023-03-15T17:49:51.491Z,25.60
2023-03-15T17:52:21.189Z,27.70
2023-03-15T17:54:49.567Z,20.30
2023-03-15T17:57:18.548Z,20.20
2023-03-15T17:59:47.032Z,21.00
2023-03-15T18:02:16.069Z,24.70
2023-03-15T18:04:44.246Z,27.40
2023-03-15T18:07:14.970Z,24.70
2023-03-15T18:09:43.247Z,27.40
2023-03-15T18:12:13.195Z,22.50
2023-03-15T18:14:42.601Z,28.70
2023-03-15T18:17:11.604Z,22.00
2023-03-15T18:19:42.005Z,13.90
2023-03-15T18:22:14.891Z,19.90
2023-03-15T18:24:47.076Z,16.50
2023-03-15T18:27:15.630Z,16.10
2023-03-15T18:29:48.483Z,13.00
2023-03-15T18:32:17.015Z,13.10
2023-03-15T18:34:45.474Z,14.60
2023-03-15T18:37:15.314Z,17.40
2023-03-15T18:39:44.006Z,12.60
2023-03-15T18:42:13.103Z,18.00
2023-03-15T18:44:44.056Z,18.70
2023-03-15T18:47:12.222Z,15.70
2023-03-15T18:49:45.349Z,17.20
2023-03-15T18:52:15.273Z,19.70
2023-03-15T18:54:45.665Z,18.30
2023-03-15T18:57:13.942Z,15.50
2023-03-15T18:59:42.223Z,12.50
2023-03-15T19:02:11.161Z,19.30
2023-03-15T19:04:39.404Z,13.40
2023-03-15T19:07:10.447Z,12.40
2023-03-15T19:09:39.239Z,15.20
2023-03-15T19:12:07.833Z,16.90
2023-03-15T19:14:37.761Z,15.00
2023-03-15T19:17:06.855Z,15.70
2023-03-15T19:19:35.232Z,18.70
2023-03-15T19:22:06.368Z,19.80
2023-03-15T19:24:36.423Z,18.20
2023-03-15T19:27:04.878Z,18.80
2023-03-15T19:29:33.225Z,21.80
2023-03-15T19:32:01.337Z,27.10
2023-03-15T19:34:33.521Z,25.90
2023-03-15T19:37:01.901Z,24.00
2023-03-15T19:39:29.990Z,21.20
2023-03-15T19:41:58.289Z,23.30
2023-03-15T19:44:27.501Z,16.90
2023-03-15T19:46:59.313Z,17.50
2023-03-15T19:49:27.707Z,16.30
2023-03-15T19:51:55.837Z,17.60
2023-03-15T19:54:24.768Z,20.40
2023-03-15T19:56:54.687Z,12.90
2023-03-15T19:59:22.854Z,14.20
2023-03-15T20:01:51.471Z,18.90
2023-03-15T20:04:19.842Z,17.40
2023-03-15T20:06:49.062Z,23.90
2023-03-15T20:09:17.223Z,18.60
2023-03-15T20:11:49.388Z,18.60
2023-03-15T20:14:21.975Z,20.90
2023-03-15T20:16:50.463Z,23.50
2023-03-15T20:19:23.722Z,18.70
2023-03-15T20:21:52.344Z,18.80
2023-03-15T20:24:20.727Z,47.10
2023-03-15T20:26:51.978Z,58.30
2023-03-15T20:29:22.538Z,55.40
2023-03-15T20:31:53.502Z,54.50
2023-03-15T20:34:22.346Z,77.50
2023-03-15T20:36:52.807Z,81.00
2023-03-15T20:39:24.245Z,39.50
2023-03-15T20:41:54.101Z,32.40
2023-03-15T20:44:22.429Z,33.50
2023-03-15T20:46:55.203Z,33.40
2023-03-15T20:49:23.810Z,23.10
2023-03-15T20:51:52.079Z,19.80
2023-03-15T20:54:21.088Z,28.10
2023-03-15T20:56:49.662Z,23.20
2023-03-15T20:59:18.193Z,23.70
2023-03-15T21:01:49.525Z,19.10
2023-03-15T21:04:18.204Z,20.10
2023-03-15T21:06:46.366Z,21.70
2023-03-15T21:09:15.013Z,18.10
2023-03-15T21:11:43.239Z,23.50
2023-03-15T21:14:11.836Z,14.10
2023-03-15T21:16:41.498Z,19.40
2023-03-15T21:19:09.763Z,19.10
2023-03-15T21:21:43.543Z,21.40
2023-03-15T21:24:12.562Z,19.60
2023-03-15T21:26:44.093Z,22.20
2023-03-15T21:29:13.888Z,22.20
2023-03-15T21:31:42.246Z,20.30
2023-03-15T21:34:10.643Z,21.60
2023-03-15T21:36:39.544Z,26.50
2023-03-15T21:39:08.546Z,26.00
2023-03-15T21:41:39.260Z,28.60
2023-03-15T21:44:07.659Z,31.60
2023-03-15T21:46:36.553Z,22.70
2023-03-15T21:49:07.046Z,23.70
2023-03-15T21:51:35.361Z,21.00
2023-03-15T21:54:09.277Z,22.90
2023-03-15T21:56:37.640Z,26.20
2023-03-15T21:59:06.041Z,26.40
2023-03-15T22:01:36.444Z,19.50
2023-03-15T22:04:04.691Z,23.90
2023-03-15T22:06:35.199Z,18.60
2023-03-15T22:09:04.514Z,14.00
2023-03-15T22:11:32.972Z,17.50
2023-03-15T22:14:01.046Z,17.10
2023-03-15T22:16:30.144Z,25.20
2023-03-15T22:18:59.263Z,32.40
2023-03-15T22:21:27.427Z,47.50
2023-03-15T22:23:55.611Z,48.00
2023-03-15T22:26:26.524Z,45.40
2023-03-15T22:28:54.997Z,46.70
2023-03-15T22:31:23.314Z,39.00
2023-03-15T22:33:54.056Z,42.70
2023-03-15T22:36:23.154Z,42.20
2023-03-15T22:38:54.503Z,64.40
2023-03-15T22:41:24.231Z,89.80
2023-03-15T22:43:55.340Z,96.40
2023-03-15T22:46:23.738Z,76.90
2023-03-15T22:48:51.852Z,50.30
2023-03-15T22:51:21.957Z,31.90
2023-03-15T22:53:50.073Z,30.40
2023-03-15T22:56:18.243Z,25.80
2023-03-15T22:58:47.512Z,27.30
2023-03-15T23:01:15.999Z,26.10
2023-03-15T23:03:44.391Z,30.00
2023-03-15T23:06:13.272Z,25.20
2023-03-15T23:08:42.795Z,18.90
2023-03-15T23:11:11.788Z,19.10
2023-03-15T23:13:40.068Z,17.90
2023-03-15T23:16:10.435Z,14.30
2023-03-15T23:18:40.111Z,20.20
2023-03-15T23:21:09.957Z,21.50
2023-03-15T23:23:43.120Z,19.20
2023-03-15T23:26:13.080Z,21.60
2023-03-15T23:28:43.791Z,16.80
2023-03-15T23:31:12.099Z,20.30
2023-03-15T23:33:40.349Z,20.40
2023-03-15T23:36:08.931Z,16.30
2023-03-15T23:38:37.406Z,16.50
2023-03-15T23:41:09.687Z,16.20
2023-03-15T23:43:38.444Z,15.50
2023-03-15T23:46:06.743Z,19.80
2023-03-15T23:48:36.476Z,21.50
2023-03-15T23:51:05.052Z,19.80
2023-03-15T23:53:36.076Z,18.70
2023-03-15T23:56:05.556Z,28.60
2023-03-15T23:58:34.003Z,16.50
